createdAt,value
2019-01-25T00:02:03.434Z,89.25
2019-01-25T00:04:31.490Z,76.45
2019-01-25T00:06:59.611Z,76.15
2019-01-25T00:09:27.657Z,70.42
2019-01-25T00:11:55.756Z,98.80
2019-01-25T00:14:23.812Z,71.65
2019-01-25T00:16:52.519Z,81.78
2019-01-25T00:19:20.558Z,82.67
2019-01-25T00:21:48.630Z,87.05
2019-01-25T00:24:16.751Z,69.22
2019-01-25T00:26:47.081Z,83.40
2019-01-25T00:29:15.143Z,71.17
2019-01-25T00:31:43.196Z,71.00
2019-01-25T00:34:11.211Z,73.78
2019-01-25T00:36:39.279Z,70.45
2019-01-25T00:39:08.459Z,60.85
2019-01-25T00:41:36.529Z,67.55
2019-01-25T00:44:04.536Z,71.05
2019-01-25T00:46:34.271Z,66.33
2019-01-25T00:49:02.266Z,76.50
2019-01-25T00:51:30.325Z,75.78
2019-01-25T00:53:58.403Z,67.75
2019-01-25T00:56:26.449Z,68.52
2019-01-25T00:58:54.537Z,74.70
2019-01-25T01:01:22.796Z,74.27
2019-01-25T01:03:50.882Z,75.40
2019-01-25T01:06:18.925Z,95.38
2019-01-25T01:08:47.016Z,71.85
2019-01-25T01:11:15.062Z,65.67
2019-01-25T01:13:43.142Z,68.72
2019-01-25T01:16:13.294Z,74.30
2019-01-25T01:18:42.208Z,79.20
2019-01-25T01:21:10.248Z,59.30
2019-01-25T01:23:38.297Z,59.75
2019-01-25T01:26:06.688Z,60.43
2019-01-25T01:28:34.738Z,67.70
2019-01-25T01:31:02.816Z,72.78
2019-01-25T01:33:30.817Z,69.97
2019-01-25T01:35:58.873Z,60.08
2019-01-25T01:38:26.855Z,66.75
2019-01-25T01:40:54.929Z,66.65
2019-01-25T01:43:22.921Z,69.67
2019-01-25T01:45:50.999Z,58.58
2019-01-25T01:48:19.027Z,70.72
2019-01-25T01:50:47.038Z,64.20
2019-01-25T01:53:15.356Z,58.95
2019-01-25T01:55:43.428Z,67.87
2019-01-25T01:58:11.382Z,58.87
2019-01-25T02:00:39.354Z,56.45
2019-01-25T02:03:07.404Z,73.35
2019-01-25T02:05:35.405Z,62.10
2019-01-25T02:08:03.466Z,59.15
2019-01-25T02:10:31.476Z,65.85
2019-01-25T02:12:59.552Z,64.50
2019-01-25T02:15:27.624Z,69.27
2019-01-25T02:17:55.656Z,70.30
2019-01-25T02:20:25.948Z,47.03
2019-01-25T02:22:54.008Z,55.60
2019-01-25T02:25:22.088Z,55.58
2019-01-25T02:27:50.190Z,55.63
2019-01-25T02:30:20.197Z,51.13
2019-01-25T02:32:48.712Z,60.12
2019-01-25T02:35:16.625Z,56.45
2019-01-25T02:37:44.716Z,68.78
2019-01-25T02:40:14.111Z,42.85
2019-01-25T02:42:42.143Z,50.80
2019-01-25T02:45:11.239Z,61.45
2019-01-25T02:47:39.266Z,48.87
2019-01-25T02:50:09.983Z,59.08
2019-01-25T02:52:37.887Z,50.52
2019-01-25T02:55:06.582Z,43.20
2019-01-25T02:57:34.605Z,63.33
2019-01-25T03:00:02.679Z,62.00
2019-01-25T03:02:30.643Z,44.40
2019-01-25T03:04:58.716Z,44.85
2019-01-25T03:07:26.768Z,49.73
2019-01-25T03:09:54.842Z,41.73
2019-01-25T03:12:22.882Z,37.90
2019-01-25T03:14:53.068Z,31.75
2019-01-25T03:17:21.100Z,43.48
2019-01-25T03:19:49.166Z,48.45
2019-01-25T03:22:17.338Z,51.90
2019-01-25T03:24:45.416Z,54.03
2019-01-25T03:27:13.516Z,41.95
2019-01-25T03:29:41.862Z,43.73
2019-01-25T03:32:09.862Z,60.75
2019-01-25T03:34:38.038Z,53.55
2019-01-25T03:37:06.081Z,47.58
2019-01-25T03:39:34.092Z,56.45
2019-01-25T03:42:02.154Z,47.48
2019-01-25T03:44:31.599Z,53.05
2019-01-25T03:46:59.658Z,30.45
2019-01-25T03:49:27.679Z,13.95
2019-01-25T03:51:55.745Z,51.73
2019-01-25T03:54:23.715Z,48.48
2019-01-25T03:56:51.765Z,54.13
2019-01-25T03:59:19.793Z,50.52
2019-01-25T04:01:47.855Z,49.03
2019-01-25T04:04:15.885Z,43.23
2019-01-25T04:06:43.901Z,18.73
2019-01-25T04:09:11.939Z,46.08
2019-01-25T04:11:39.989Z,35.88
2019-01-25T04:14:08.025Z,37.13
2019-01-25T04:16:36.158Z,63.45
2019-01-25T04:19:04.237Z,44.55
2019-01-25T04:21:32.318Z,33.80
2019-01-25T04:24:00.306Z,46.28
2019-01-25T04:26:28.354Z,41.80
2019-01-25T04:28:58.252Z,43.98
2019-01-25T04:31:26.365Z,32.67
2019-01-25T04:33:54.406Z,49.00
2019-01-25T04:36:22.472Z,38.15
2019-01-25T04:38:50.560Z,41.92
2019-01-25T04:41:18.651Z,42.33
2019-01-25T04:43:46.713Z,41.33
2019-01-25T04:46:14.810Z,48.63
2019-01-25T04:48:42.807Z,50.17
2019-01-25T04:51:10.868Z,41.48
2019-01-25T04:53:38.904Z,50.58
2019-01-25T04:56:06.924Z,39.58
2019-01-25T04:58:35.001Z,36.60
2019-01-25T05:01:10.534Z,44.27
2019-01-25T05:03:38.481Z,36.68
2019-01-25T05:06:07.366Z,41.15
2019-01-25T05:08:35.342Z,26.37
2019-01-25T05:11:03.375Z,37.30
2019-01-25T05:13:31.768Z,31.57
2019-01-25T05:16:01.168Z,35.13
2019-01-25T05:18:29.182Z,21.70
2019-01-25T05:20:57.216Z,28.42
2019-01-25T05:23:25.305Z,35.15
2019-01-25T05:25:53.413Z,27.98
2019-01-25T05:28:21.478Z,31.52
2019-01-25T05:31:00.474Z,28.62
2019-01-25T05:33:28.531Z,28.57
2019-01-25T05:35:56.535Z,34.20
2019-01-25T05:38:24.616Z,41.83
2019-01-25T05:40:52.662Z,34.53
2019-01-25T05:43:20.686Z,35.17
2019-01-25T05:45:48.719Z,38.17
2019-01-25T05:48:16.735Z,43.65
2019-01-25T05:50:44.794Z,35.63
2019-01-25T05:53:12.819Z,29.92
2019-01-25T05:55:40.968Z,44.03
2019-01-25T05:58:09.018Z,40.03
2019-01-25T06:00:39.509Z,32.15
2019-01-25T06:03:15.031Z,37.03
2019-01-25T06:05:43.081Z,37.98
2019-01-25T06:08:29.218Z,34.10
2019-01-25T06:10:57.946Z,27.00
2019-01-25T06:13:25.996Z,32.25
2019-01-25T06:15:54.078Z,33.30
2019-01-25T06:18:22.082Z,31.20
2019-01-25T06:20:52.784Z,31.05
2019-01-25T06:23:20.830Z,36.58
2019-01-25T06:25:52.892Z,42.80
2019-01-25T06:28:20.870Z,43.13
2019-01-25T06:30:48.871Z,41.10
2019-01-25T06:33:16.977Z,35.75
2019-01-25T06:35:45.104Z,29.80
2019-01-25T06:38:13.093Z,28.80
2019-01-25T06:40:41.259Z,29.12
2019-01-25T06:43:09.266Z,34.95
2019-01-25T06:45:37.248Z,42.93
2019-01-25T06:48:05.302Z,36.83
2019-01-25T06:50:33.321Z,39.38
2019-01-25T06:53:01.381Z,42.17
2019-01-25T06:55:29.368Z,44.50
2019-01-25T06:58:22.223Z,36.40
2019-01-25T07:01:09.263Z,33.20
2019-01-25T07:03:37.280Z,41.40
2019-01-25T07:06:05.275Z,35.28
2019-01-25T07:08:33.325Z,32.73
2019-01-25T07:11:01.330Z,30.32
2019-01-25T07:13:29.344Z,36.70
2019-01-25T07:15:57.458Z,36.93
2019-01-25T07:18:25.668Z,39.40
2019-01-25T07:20:53.760Z,20.30
2019-01-25T07:23:21.806Z,36.83
2019-01-25T07:25:49.812Z,39.48
2019-01-25T07:28:17.802Z,37.78
2019-01-25T07:30:45.822Z,34.83
2019-01-25T07:33:13.892Z,35.13
2019-01-25T07:35:41.954Z,31.30
2019-01-25T07:38:09.942Z,31.42
2019-01-25T07:40:38.034Z,25.90
2019-01-25T07:43:06.090Z,32.35
2019-01-25T07:45:34.198Z,35.17
2019-01-25T07:48:02.229Z,32.35
2019-01-25T07:50:30.220Z,33.92
2019-01-25T07:52:58.300Z,30.65
2019-01-25T07:55:26.606Z,19.65
2019-01-25T07:57:54.632Z,37.98
2019-01-25T08:00:22.640Z,31.57
2019-01-25T08:02:50.669Z,30.43
2019-01-25T08:05:18.668Z,32.15
2019-01-25T08:07:46.773Z,38.90
2019-01-25T08:10:16.140Z,33.53
2019-01-25T08:12:44.192Z,35.85
2019-01-25T08:15:14.792Z,15.35
2019-01-25T08:17:42.859Z,29.75
2019-01-25T08:20:11.185Z,29.52
2019-01-25T08:22:39.241Z,43.58
2019-01-25T08:25:13.213Z,33.67
2019-01-25T08:27:41.357Z,27.73
2019-01-25T08:30:11.693Z,35.38
2019-01-25T08:32:39.673Z,38.63
2019-01-25T08:35:09.367Z,35.73
2019-01-25T08:37:37.362Z,42.08
2019-01-25T08:40:05.737Z,27.40
2019-01-25T08:42:33.815Z,27.95
2019-01-25T08:45:01.958Z,41.23
2019-01-25T08:47:29.994Z,35.60
2019-01-25T08:49:58.342Z,36.00
2019-01-25T08:52:26.729Z,32.25
2019-01-25T08:54:54.750Z,29.45
2019-01-25T08:57:22.813Z,36.70
2019-01-25T08:59:50.869Z,37.30
2019-01-25T09:02:18.874Z,37.23
2019-01-25T09:04:46.891Z,37.00
2019-01-25T09:07:14.894Z,35.78
2019-01-25T09:09:42.995Z,37.13
2019-01-25T09:12:11.014Z,47.00
2019-01-25T09:14:39.133Z,49.83
2019-01-25T09:17:07.177Z,27.52
2019-01-25T09:19:35.378Z,41.00
2019-01-25T09:22:03.377Z,33.42
2019-01-25T09:24:31.400Z,44.98
2019-01-25T09:26:59.517Z,32.95
2019-01-25T09:29:27.519Z,37.78
2019-01-25T09:31:55.622Z,34.85
2019-01-25T09:34:23.657Z,27.00
2019-01-25T09:36:51.742Z,41.85
2019-01-25T09:39:19.830Z,32.88
2019-01-25T09:41:47.844Z,28.12
2019-01-25T09:44:15.940Z,41.83
2019-01-25T09:46:43.953Z,46.45
2019-01-25T09:49:12.062Z,43.15
2019-01-25T09:51:40.163Z,37.60
2019-01-25T09:54:08.266Z,36.35
2019-01-25T09:56:36.377Z,38.42
2019-01-25T09:59:04.585Z,39.83
2019-01-25T10:01:32.553Z,25.80
2019-01-25T10:04:00.631Z,39.88
2019-01-25T10:06:28.755Z,37.40
2019-01-25T10:08:56.869Z,39.78
2019-01-25T10:11:24.936Z,45.85
2019-01-25T10:13:52.928Z,34.92
2019-01-25T10:16:21.005Z,31.33
2019-01-25T10:18:49.076Z,33.85
2019-01-25T10:21:17.127Z,43.30
2019-01-25T10:23:45.155Z,37.20
2019-01-25T10:26:13.228Z,36.00
2019-01-25T10:28:41.305Z,48.40
2019-01-25T10:31:09.372Z,22.37
2019-01-25T10:33:37.438Z,38.13
2019-01-25T10:36:05.487Z,29.23
2019-01-25T10:38:33.562Z,40.83
2019-01-25T10:41:01.595Z,40.67
2019-01-25T10:43:29.637Z,28.25
2019-01-25T10:45:57.708Z,39.48
2019-01-25T10:48:25.696Z,45.20
2019-01-25T10:50:53.687Z,41.98
2019-01-25T10:53:21.755Z,35.98
2019-01-25T10:55:49.750Z,35.88
2019-01-25T10:58:17.771Z,37.53
2019-01-25T11:00:45.805Z,37.33
2019-01-25T11:03:13.814Z,23.83
2019-01-25T11:05:41.835Z,25.30
2019-01-25T11:08:09.877Z,33.10
2019-01-25T11:10:37.884Z,29.50
2019-01-25T11:13:05.887Z,43.83
2019-01-25T11:15:33.921Z,43.50
2019-01-25T11:18:01.999Z,37.17
2019-01-25T11:20:30.006Z,27.65
2019-01-25T11:22:58.105Z,32.25
2019-01-25T11:25:28.672Z,43.55
2019-01-25T11:27:56.736Z,37.73
2019-01-25T11:30:24.727Z,36.80
2019-01-25T11:32:52.821Z,28.87
2019-01-25T11:35:20.922Z,31.68
2019-01-25T11:37:48.997Z,33.48
2019-01-25T11:40:20.113Z,29.87
2019-01-25T11:42:48.133Z,27.65
2019-01-25T11:45:16.244Z,27.20
2019-01-25T11:47:44.331Z,27.85
2019-01-25T11:50:13.864Z,31.37
2019-01-25T11:52:41.854Z,32.25
2019-01-25T11:55:10.313Z,31.65
2019-01-25T11:57:38.400Z,32.45
2019-01-25T12:00:10.156Z,18.70
2019-01-25T12:02:38.316Z,23.40
2019-01-25T12:05:06.537Z,24.98
2019-01-25T12:07:34.624Z,33.40
2019-01-25T12:10:02.659Z,37.33
2019-01-25T12:12:30.733Z,26.75
2019-01-25T12:14:58.761Z,27.17
2019-01-25T12:17:26.878Z,35.33
2019-01-25T12:19:54.927Z,29.85
2019-01-25T12:22:23.142Z,31.07
2019-01-25T12:24:51.205Z,31.85
2019-01-25T12:27:19.285Z,32.95
2019-01-25T12:29:47.359Z,26.35
2019-01-25T12:32:15.759Z,32.53
2019-01-25T12:34:43.941Z,17.50
2019-01-25T12:37:12.396Z,33.25
2019-01-25T12:39:40.483Z,28.77
2019-01-25T12:42:08.627Z,38.45
2019-01-25T12:44:36.747Z,38.65
2019-01-25T12:47:04.819Z,28.25
2019-01-25T12:49:33.116Z,25.62
2019-01-25T12:52:08.288Z,35.17
2019-01-25T12:54:35.270Z,32.70
2019-01-25T12:57:03.504Z,35.55
2019-01-25T12:59:31.778Z,29.27
2019-01-25T13:04:35.511Z,23.87
2019-01-25T13:07:03.877Z,37.85
2019-01-25T13:09:31.956Z,31.15
2019-01-25T13:12:00.052Z,37.95
2019-01-25T13:14:28.581Z,34.30
2019-01-25T13:16:56.737Z,36.53
2019-01-25T13:19:24.855Z,27.37
2019-01-25T13:21:52.903Z,32.20
2019-01-25T13:24:21.193Z,25.32
2019-01-25T13:26:49.557Z,36.08
2019-01-25T13:29:17.699Z,44.98
2019-01-25T13:31:45.881Z,29.82
2019-01-25T13:34:14.209Z,36.10
2019-01-25T13:36:42.235Z,39.27
2019-01-25T13:39:10.703Z,30.85
2019-01-25T13:41:38.971Z,33.70
2019-01-25T13:44:07.087Z,37.53
2019-01-25T13:46:35.165Z,33.98
2019-01-25T13:49:03.192Z,40.15
2019-01-25T13:51:31.291Z,41.00
2019-01-25T13:53:59.336Z,31.15
2019-01-25T13:56:27.386Z,33.25
2019-01-25T13:58:55.439Z,29.85
2019-01-25T14:01:23.576Z,26.95
2019-01-25T14:03:51.712Z,26.23
2019-01-25T14:06:19.774Z,35.10
2019-01-25T14:08:47.856Z,33.60
2019-01-25T14:11:16.409Z,33.98
2019-01-25T14:13:46.915Z,33.58
2019-01-25T14:16:14.290Z,27.62
2019-01-25T14:18:44.914Z,26.00
2019-01-25T14:21:12.326Z,33.80
2019-01-25T14:23:40.438Z,34.58
2019-01-25T14:26:08.706Z,32.45
2019-01-25T14:28:37.334Z,32.15
2019-01-25T14:31:06.686Z,34.70
2019-01-25T14:33:34.875Z,27.10
2019-01-25T14:36:03.119Z,33.18
2019-01-25T14:38:31.337Z,37.70
2019-01-25T14:40:59.405Z,28.32
2019-01-25T14:43:27.631Z,32.53
2019-01-25T14:45:56.646Z,28.55
2019-01-25T14:48:25.747Z,34.05
2019-01-25T14:50:53.840Z,29.27
2019-01-25T14:53:21.967Z,33.85
2019-01-25T14:55:50.059Z,38.85
2019-01-25T14:58:18.234Z,38.50
2019-01-25T15:00:46.299Z,36.45
2019-01-25T15:03:14.364Z,30.43
2019-01-25T15:05:42.427Z,34.83
2019-01-25T15:08:10.507Z,38.28
2019-01-25T15:10:38.593Z,35.52
2019-01-25T15:13:07.791Z,43.60
2019-01-25T15:15:35.896Z,44.35
2019-01-25T15:18:04.050Z,44.40
2019-01-25T15:20:32.144Z,36.70
2019-01-25T15:23:00.194Z,40.17
2019-01-25T15:25:28.295Z,52.23
2019-01-25T15:27:56.357Z,48.50
2019-01-25T15:30:26.815Z,40.30
2019-01-25T15:32:54.897Z,38.78
2019-01-25T15:35:23.291Z,35.85
2019-01-25T15:37:51.386Z,38.90
2019-01-25T15:40:19.497Z,38.20
2019-01-25T15:42:47.658Z,38.53
2019-01-25T15:45:16.517Z,39.70
2019-01-25T15:47:47.339Z,46.58
2019-01-25T15:53:01.760Z,38.58
2019-01-25T15:55:29.856Z,43.50
2019-01-25T15:57:57.904Z,40.75
2019-01-25T16:00:27.607Z,37.40
2019-01-25T16:02:55.895Z,43.98
2019-01-25T16:05:24.494Z,36.30
2019-01-25T16:07:52.698Z,44.65
2019-01-25T16:10:21.538Z,46.42
2019-01-25T16:12:56.408Z,38.83
2019-01-25T16:15:28.126Z,41.40
2019-01-25T16:17:56.493Z,43.20
2019-01-25T16:20:24.710Z,38.17
2019-01-25T16:22:52.856Z,36.15
2019-01-25T16:25:23.458Z,42.10
2019-01-25T16:27:51.593Z,40.60
2019-01-25T16:30:24.911Z,38.75
2019-01-25T16:32:53.072Z,39.63
2019-01-25T16:35:21.255Z,34.48
2019-01-25T16:37:49.792Z,41.28
2019-01-25T16:40:19.282Z,36.05
2019-01-25T16:42:47.598Z,37.42
2019-01-25T16:45:18.519Z,42.27
2019-01-25T16:47:46.619Z,36.05
2019-01-25T16:50:14.650Z,38.45
2019-01-25T16:52:42.779Z,36.33
2019-01-25T16:55:12.187Z,33.35
2019-01-25T16:57:40.258Z,37.85
2019-01-25T17:00:16.355Z,39.20
2019-01-25T17:02:44.407Z,36.50
2019-01-25T17:05:12.913Z,39.55
2019-01-25T17:07:40.978Z,40.00
2019-01-25T17:10:09.099Z,30.70
2019-01-25T17:12:37.273Z,46.08
2019-01-25T17:15:05.976Z,52.70
2019-01-25T17:17:34.192Z,51.85
2019-01-25T17:20:02.445Z,45.33
2019-01-25T17:22:30.570Z,37.05
2019-01-25T17:24:58.615Z,29.40
2019-01-25T17:27:26.906Z,34.23
2019-01-25T17:29:55.094Z,36.42
2019-01-25T17:32:23.220Z,38.58
2019-01-25T17:34:51.748Z,48.28
2019-01-25T17:37:19.951Z,51.63
2019-01-25T17:39:48.377Z,54.25
2019-01-25T17:42:16.546Z,44.33
2019-01-25T17:44:44.670Z,47.60
2019-01-25T17:47:13.109Z,67.58
2019-01-25T17:49:41.800Z,47.45
2019-01-25T17:52:09.983Z,68.28
2019-01-25T17:54:38.319Z,46.90
2019-01-25T17:57:06.565Z,38.10
2019-01-25T17:59:34.630Z,38.30
2019-01-25T18:02:03.292Z,34.03
2019-01-25T18:04:31.603Z,30.82
2019-01-25T18:06:59.710Z,25.10
2019-01-25T18:09:27.761Z,15.65
2019-01-25T18:11:56.191Z,30.85
2019-01-25T18:14:24.589Z,27.87
2019-01-25T18:16:53.086Z,30.17
2019-01-25T18:19:21.367Z,28.47
2019-01-25T18:22:08.856Z,12.03
2019-01-25T18:24:37.363Z,34.90
2019-01-25T18:27:05.646Z,48.23
2019-01-25T18:29:56.072Z,51.40
2019-01-25T18:32:24.334Z,39.20
2019-01-25T18:34:52.675Z,31.50
2019-01-25T18:37:20.858Z,34.40
2019-01-25T18:39:49.302Z,29.25
2019-01-25T18:42:17.705Z,46.63
2019-01-25T18:44:46.009Z,31.17
2019-01-25T18:47:14.237Z,39.73
2019-01-25T18:49:42.774Z,38.25
2019-01-25T18:52:11.004Z,38.25
2019-01-25T18:54:39.356Z,29.52
2019-01-25T18:57:07.458Z,39.40
2019-01-25T18:59:35.583Z,49.33
2019-01-25T19:02:03.666Z,36.40
2019-01-25T19:04:31.844Z,49.42
2019-01-25T19:06:59.969Z,42.90
2019-01-25T19:09:28.393Z,41.48
2019-01-25T19:11:56.487Z,55.60
2019-01-25T19:14:24.729Z,40.60
2019-01-25T19:16:52.908Z,57.75
2019-01-25T19:19:21.026Z,45.35
2019-01-25T19:21:49.239Z,43.17
2019-01-25T19:24:17.763Z,53.52
2019-01-25T19:26:46.204Z,49.48
2019-01-25T19:29:14.553Z,51.77
2019-01-25T19:31:42.655Z,38.17
2019-01-25T19:34:11.158Z,30.70
2019-01-25T19:36:39.626Z,39.33
2019-01-25T19:39:12.270Z,34.75
2019-01-25T19:41:40.898Z,35.43
2019-01-25T19:44:09.371Z,38.02
2019-01-25T19:46:38.116Z,38.90
2019-01-25T19:49:06.568Z,33.42
2019-01-25T19:51:35.648Z,36.20
2019-01-25T19:54:04.244Z,33.75
2019-01-25T19:56:33.798Z,33.55
2019-01-25T19:59:02.866Z,37.90
2019-01-25T20:01:31.693Z,31.25
2019-01-25T20:03:59.900Z,43.73
2019-01-25T20:06:28.219Z,31.87
2019-01-25T20:08:57.175Z,21.15
2019-01-25T20:11:26.068Z,35.15
2019-01-25T20:13:57.215Z,31.90
2019-01-25T20:16:27.179Z,37.70
2019-01-25T20:18:55.801Z,35.10
2019-01-25T20:21:24.722Z,44.90
2019-01-25T20:23:58.733Z,41.58
2019-01-25T20:26:27.382Z,34.50
2019-01-25T20:28:56.042Z,53.25
2019-01-25T20:31:29.103Z,36.03
2019-01-25T20:33:57.839Z,45.40
2019-01-25T20:36:26.411Z,40.28
2019-01-25T20:38:56.506Z,50.17
2019-01-25T20:41:25.351Z,38.75
2019-01-25T20:43:53.682Z,47.83
2019-01-25T20:46:24.618Z,47.93
2019-01-25T20:48:52.694Z,49.83
2019-01-25T20:51:21.225Z,37.67
2019-01-25T20:53:49.404Z,42.55
2019-01-25T20:56:18.374Z,46.42
2019-01-25T20:58:47.073Z,43.17
2019-01-25T21:01:15.762Z,41.92
2019-01-25T21:03:44.371Z,39.00
2019-01-25T21:06:13.143Z,36.45
2019-01-25T21:08:41.751Z,45.78
2019-01-25T21:11:10.250Z,30.45
2019-01-25T21:13:38.871Z,42.73
2019-01-25T21:16:07.850Z,45.75
2019-01-25T21:18:36.930Z,39.38
2019-01-25T21:21:05.653Z,25.55
2019-01-25T21:23:34.172Z,40.60
2019-01-25T21:26:02.605Z,18.70
2019-01-25T21:28:30.804Z,29.95
2019-01-25T21:30:59.333Z,33.35
2019-01-25T21:33:28.287Z,34.25
2019-01-25T21:35:57.341Z,34.60
2019-01-25T21:38:26.405Z,29.70
2019-01-25T21:40:54.651Z,41.60
2019-01-25T21:43:22.998Z,36.33
2019-01-25T21:45:52.199Z,31.70
2019-01-25T21:48:21.040Z,31.07
2019-01-25T21:50:49.812Z,35.85
2019-01-25T21:53:17.956Z,31.40
2019-01-25T21:55:46.212Z,42.35
2019-01-25T21:58:14.411Z,43.17
2019-01-25T22:00:42.837Z,43.08
2019-01-25T22:03:10.995Z,49.98
2019-01-25T22:05:39.109Z,43.00
2019-01-25T22:08:07.277Z,36.17
2019-01-25T22:10:38.269Z,34.88
2019-01-25T22:13:06.745Z,37.05
2019-01-25T22:15:34.955Z,35.38
2019-01-25T22:18:03.251Z,33.02
2019-01-25T22:20:31.475Z,33.45
2019-01-25T22:22:59.664Z,33.13
2019-01-25T22:25:27.907Z,23.55
2019-01-25T22:27:57.511Z,20.95
2019-01-25T22:30:25.814Z,32.80
2019-01-25T22:32:53.860Z,29.18
2019-01-25T22:35:22.052Z,34.90
2019-01-25T22:37:50.227Z,35.15
2019-01-25T22:40:20.517Z,27.62
2019-01-25T22:42:48.635Z,22.52
2019-01-25T22:45:18.908Z,22.42
2019-01-25T22:47:47.061Z,23.18
2019-01-25T22:50:18.050Z,17.80
2019-01-25T22:52:46.068Z,16.00
2019-01-25T22:55:14.879Z,14.28
2019-01-25T22:57:43.186Z,13.25
2019-01-25T23:00:18.106Z,15.10
2019-01-25T23:02:46.321Z,12.90
2019-01-25T23:06:00.211Z,13.55
2019-01-25T23:08:28.200Z,18.95
2019-01-25T23:10:56.532Z,17.02
2019-01-25T23:13:24.573Z,14.73
2019-01-25T23:15:52.806Z,18.75
2019-01-25T23:18:20.962Z,18.75
2019-01-25T23:20:49.007Z,14.15
2019-01-25T23:23:17.131Z,18.02
2019-01-25T23:25:45.176Z,22.70
2019-01-25T23:28:13.452Z,10.60
2019-01-25T23:30:41.505Z,10.70
2019-01-25T23:33:09.621Z,6.62
2019-01-25T23:35:37.703Z,14.40
2019-01-25T23:38:05.805Z,14.55
2019-01-25T23:40:33.953Z,9.90
2019-01-25T23:43:02.167Z,13.85
2019-01-25T23:45:30.306Z,13.75
2019-01-25T23:47:58.374Z,13.40
2019-01-25T23:50:26.552Z,12.05
2019-01-25T23:52:54.562Z,10.35
2019-01-25T23:55:22.602Z,10.90
2019-01-25T23:57:50.604Z,13.08
